createdAt,value
2022-12-06T00:00:38.136Z,3.80
2022-12-06T00:01:38.143Z,3.73
2022-12-06T00:02:39.176Z,3.65
2022-12-06T00:03:38.159Z,3.78
2022-12-06T00:04:38.087Z,3.81
2022-12-06T00:05:41.845Z,3.69
2022-12-06T00:06:40.071Z,3.74
2022-12-06T00:07:38.095Z,3.77
2022-12-06T00:08:38.053Z,3.83
2022-12-06T00:09:38.045Z,3.69
2022-12-06T00:10:38.068Z,3.92
2022-12-06T00:11:38.026Z,3.80
2022-12-06T00:12:38.030Z,3.70
2022-12-06T00:13:38.013Z,3.74
2022-12-06T00:14:38.006Z,3.74
2022-12-06T00:15:38.030Z,3.77
2022-12-06T00:16:38.032Z,3.80
2022-12-06T00:17:42.882Z,3.66
2022-12-06T00:18:39.979Z,3.76
2022-12-06T00:19:37.979Z,3.70
2022-12-06T00:20:37.997Z,3.87
2022-12-06T00:21:37.954Z,3.73
2022-12-06T00:22:37.951Z,3.70
2022-12-06T00:23:37.945Z,3.77
2022-12-06T00:24:37.941Z,3.68
2022-12-06T00:25:37.927Z,3.74
2022-12-06T00:26:37.954Z,3.84
2022-12-06T00:27:37.909Z,3.65
2022-12-06T00:28:37.913Z,3.70
2022-12-06T00:29:37.899Z,3.73
2022-12-06T00:30:37.922Z,3.70
2022-12-06T00:31:37.977Z,3.77
2022-12-06T00:32:37.879Z,3.70
2022-12-06T00:33:37.872Z,3.76
2022-12-06T00:34:37.861Z,3.76
2022-12-06T00:35:37.860Z,3.70
2022-12-06T00:36:37.873Z,3.69
2022-12-06T00:37:37.837Z,3.70
2022-12-06T00:38:37.833Z,3.65
2022-12-06T00:39:37.821Z,3.65
2022-12-06T00:40:37.819Z,3.76
2022-12-06T00:41:37.833Z,3.65
2022-12-06T00:43:12.157Z,3.68
2022-12-06T00:43:37.794Z,3.68
2022-12-06T00:44:37.783Z,3.63
2022-12-06T00:45:37.864Z,3.65
2022-12-06T00:46:37.796Z,3.60
2022-12-06T00:47:37.762Z,3.69
2022-12-06T00:48:37.758Z,3.65
2022-12-06T00:49:37.752Z,3.65
2022-12-06T00:50:37.743Z,3.66
2022-12-06T00:51:37.755Z,3.58
2022-12-06T00:52:37.728Z,3.62
2022-12-06T00:53:37.718Z,3.58
2022-12-06T00:54:37.719Z,3.65
2022-12-06T00:55:37.700Z,3.63
2022-12-06T00:56:37.722Z,3.60
2022-12-06T00:57:37.681Z,3.68
2022-12-06T00:58:37.678Z,3.60
2022-12-06T00:59:37.671Z,3.59
2022-12-06T01:00:37.664Z,3.66
2022-12-06T01:01:37.727Z,3.55
2022-12-06T01:02:37.638Z,3.62
2022-12-06T01:03:38.692Z,3.53
2022-12-06T01:04:37.629Z,3.63
2022-12-06T01:05:37.631Z,3.62
2022-12-06T01:06:37.647Z,3.65
2022-12-06T01:07:37.642Z,3.62
2022-12-06T01:08:37.606Z,3.62
2022-12-06T01:09:37.601Z,3.60
2022-12-06T01:10:37.583Z,3.68
2022-12-06T01:11:37.608Z,3.56
2022-12-06T01:12:37.573Z,3.59
2022-12-06T01:13:37.567Z,3.59
2022-12-06T01:14:37.555Z,3.62
2022-12-06T01:15:37.554Z,3.62
2022-12-06T01:16:37.661Z,3.56
2022-12-06T01:17:37.565Z,3.68
2022-12-06T01:18:37.529Z,3.59
2022-12-06T01:19:37.521Z,3.65
2022-12-06T01:20:37.513Z,3.63
2022-12-06T01:21:37.541Z,3.59
2022-12-06T01:22:37.489Z,3.65
2022-12-06T01:23:37.492Z,3.69
2022-12-06T01:24:37.478Z,3.68
2022-12-06T01:25:37.473Z,3.69
2022-12-06T01:26:37.492Z,3.63
2022-12-06T01:27:37.461Z,3.60
2022-12-06T01:28:37.454Z,3.65
2022-12-06T01:29:37.452Z,3.60
2022-12-06T01:30:37.552Z,3.69
2022-12-06T01:31:39.065Z,3.60
2022-12-06T01:32:38.429Z,3.59
2022-12-06T01:33:37.417Z,3.56
2022-12-06T01:34:37.409Z,3.60
2022-12-06T01:35:37.402Z,3.66
2022-12-06T01:36:37.420Z,3.56
2022-12-06T01:37:37.383Z,3.48
2022-12-06T01:38:37.379Z,3.60
2022-12-06T01:39:37.371Z,3.53
2022-12-06T01:40:37.361Z,3.53
2022-12-06T01:41:37.384Z,3.65
2022-12-06T01:42:37.350Z,3.59
2022-12-06T01:43:37.339Z,3.44
2022-12-06T01:44:37.350Z,3.44
2022-12-06T01:45:37.326Z,3.45
2022-12-06T01:46:37.427Z,3.44
2022-12-06T01:47:37.310Z,3.50
2022-12-06T01:48:37.303Z,3.48
2022-12-06T01:49:37.292Z,3.50
2022-12-06T01:50:37.290Z,3.50
2022-12-06T01:51:37.315Z,3.44
2022-12-06T01:52:37.275Z,3.48
2022-12-06T01:53:37.283Z,3.44
2022-12-06T01:54:37.265Z,3.53
2022-12-06T01:55:37.255Z,3.48
2022-12-06T01:56:37.266Z,3.47
2022-12-06T01:57:37.238Z,3.41
2022-12-06T01:58:37.248Z,3.37
2022-12-06T01:59:37.221Z,3.47
2022-12-06T02:00:37.217Z,3.50
2022-12-06T02:01:37.319Z,3.40
2022-12-06T02:02:37.237Z,3.36
2022-12-06T02:03:37.202Z,3.37
2022-12-06T02:04:37.191Z,3.50
2022-12-06T02:05:40.714Z,3.47
2022-12-06T02:06:38.195Z,3.41
2022-12-06T02:07:37.211Z,3.51
2022-12-06T02:08:37.157Z,3.50
2022-12-06T02:09:37.150Z,3.44
2022-12-06T02:10:37.136Z,3.53
2022-12-06T02:11:37.155Z,3.48
2022-12-06T02:12:38.126Z,3.37
2022-12-06T02:13:37.145Z,3.51
2022-12-06T02:14:37.112Z,3.53
2022-12-06T02:15:37.106Z,3.42
2022-12-06T02:16:37.185Z,3.45
2022-12-06T02:17:37.092Z,3.41
2022-12-06T02:18:37.084Z,3.37
2022-12-06T02:19:37.103Z,3.41
2022-12-06T02:20:37.085Z,3.45
2022-12-06T02:21:37.074Z,3.47
2022-12-06T02:22:37.076Z,3.44
2022-12-06T02:23:37.057Z,3.42
2022-12-06T02:24:37.067Z,3.55
2022-12-06T02:25:40.756Z,3.41
2022-12-06T02:26:39.025Z,3.44
2022-12-06T02:27:37.015Z,3.36
2022-12-06T02:28:37.014Z,3.41
2022-12-06T02:29:37.026Z,3.36
2022-12-06T02:30:37.096Z,3.42
2022-12-06T02:31:36.986Z,3.34
2022-12-06T02:32:36.986Z,3.37
2022-12-06T02:33:36.974Z,3.37
2022-12-06T02:34:37.010Z,3.40
2022-12-06T02:35:36.959Z,3.32
2022-12-06T02:36:36.952Z,3.40
2022-12-06T02:37:36.941Z,3.50
2022-12-06T02:38:36.939Z,3.45
2022-12-06T02:39:36.967Z,3.48
2022-12-06T02:40:36.921Z,3.48
2022-12-06T02:41:36.909Z,3.50
2022-12-06T02:42:36.906Z,3.50
2022-12-06T02:43:36.900Z,3.50
2022-12-06T02:44:36.913Z,3.48
2022-12-06T02:45:36.890Z,3.45
2022-12-06T02:46:36.908Z,3.42
2022-12-06T02:47:36.866Z,3.47
2022-12-06T02:48:36.855Z,3.45
2022-12-06T02:49:36.876Z,3.44
2022-12-06T02:50:36.845Z,3.51
2022-12-06T02:51:36.846Z,3.45
2022-12-06T02:52:36.830Z,3.45
2022-12-06T02:53:36.823Z,3.40
2022-12-06T02:54:36.842Z,3.42
2022-12-06T02:55:36.813Z,3.44
2022-12-06T02:56:36.806Z,3.37
2022-12-06T02:57:36.792Z,3.41
2022-12-06T02:58:36.791Z,3.44
2022-12-06T02:59:36.806Z,3.41
2022-12-06T03:00:36.773Z,3.31
2022-12-06T03:01:36.793Z,3.41
2022-12-06T03:02:36.808Z,3.42
2022-12-06T03:03:36.749Z,3.29
2022-12-06T03:04:36.773Z,3.41
2022-12-06T03:05:36.739Z,3.37
2022-12-06T03:06:36.723Z,3.42
2022-12-06T03:07:36.790Z,3.41
2022-12-06T03:08:36.713Z,3.31
2022-12-06T03:09:36.726Z,3.29
2022-12-06T03:10:36.701Z,3.31
2022-12-06T03:11:36.705Z,3.31
2022-12-06T03:12:36.688Z,3.28
2022-12-06T03:13:36.671Z,3.32
2022-12-06T03:14:36.692Z,3.31
2022-12-06T03:15:36.685Z,3.34
2022-12-06T03:16:36.661Z,3.31
2022-12-06T03:17:36.638Z,3.23
2022-12-06T03:18:36.631Z,3.29
2022-12-06T03:19:36.650Z,3.34
2022-12-06T03:20:36.619Z,3.34
2022-12-06T03:21:36.609Z,3.29
2022-12-06T03:22:39.808Z,3.22
2022-12-06T03:23:37.596Z,3.22
2022-12-06T03:24:36.624Z,3.21
2022-12-06T03:25:36.582Z,3.26
2022-12-06T03:26:36.579Z,3.29
2022-12-06T03:27:36.569Z,3.11
2022-12-06T03:28:36.576Z,3.26
2022-12-06T03:29:36.555Z,3.26
2022-12-06T03:30:36.599Z,3.23
2022-12-06T03:31:36.609Z,3.31
2022-12-06T03:32:36.540Z,3.23
2022-12-06T03:33:36.524Z,3.31
2022-12-06T03:34:36.575Z,3.31
2022-12-06T03:35:36.562Z,3.29
2022-12-06T03:36:36.505Z,3.25
2022-12-06T03:37:36.491Z,3.26
2022-12-06T03:38:36.489Z,3.23
2022-12-06T03:39:36.487Z,3.22
2022-12-06T03:40:36.501Z,3.21
2022-12-06T03:41:36.466Z,3.16
2022-12-06T03:42:36.460Z,3.31
2022-12-06T03:43:36.446Z,3.26
2022-12-06T03:44:36.439Z,3.22
2022-12-06T03:45:36.488Z,3.19
2022-12-06T03:46:36.476Z,3.26
2022-12-06T03:47:36.420Z,3.28
2022-12-06T03:48:36.406Z,3.26
2022-12-06T03:49:36.400Z,3.22
2022-12-06T03:50:36.424Z,3.13
2022-12-06T03:51:36.397Z,3.29
2022-12-06T03:52:36.391Z,3.26
2022-12-06T03:53:36.386Z,3.18
2022-12-06T03:54:36.368Z,3.14
2022-12-06T03:55:36.380Z,3.22
2022-12-06T03:56:36.348Z,3.31
2022-12-06T03:57:36.337Z,3.21
2022-12-06T03:58:36.331Z,3.28
2022-12-06T03:59:36.324Z,3.23
2022-12-06T04:00:36.339Z,3.26
2022-12-06T04:01:36.376Z,3.23
2022-12-06T04:02:36.318Z,3.28
2022-12-06T04:03:36.350Z,3.31
2022-12-06T04:04:36.293Z,3.28
2022-12-06T04:05:36.300Z,3.23
2022-12-06T04:06:36.273Z,3.28
2022-12-06T04:07:36.299Z,3.10
2022-12-06T04:08:36.256Z,3.11
2022-12-06T04:09:36.245Z,3.10
2022-12-06T04:10:36.267Z,3.16
2022-12-06T04:11:36.232Z,3.14
2022-12-06T04:12:36.229Z,3.07
2022-12-06T04:13:36.210Z,3.19
2022-12-06T04:14:37.203Z,3.23
2022-12-06T04:15:36.395Z,3.13
2022-12-06T04:16:36.242Z,3.14
2022-12-06T04:17:36.190Z,3.23
2022-12-06T04:18:36.176Z,3.23
2022-12-06T04:19:36.203Z,3.19
2022-12-06T04:20:36.191Z,3.19
2022-12-06T04:21:36.151Z,3.25
2022-12-06T04:22:36.277Z,3.29
2022-12-06T04:23:36.135Z,3.23
2022-12-06T04:24:36.124Z,3.23
2022-12-06T04:25:37.165Z,3.18
2022-12-06T04:26:36.128Z,3.22
2022-12-06T04:27:36.115Z,3.19
2022-12-06T04:28:36.107Z,3.28
2022-12-06T04:29:36.127Z,3.14
2022-12-06T04:30:36.121Z,3.25
2022-12-06T04:31:36.174Z,3.31
2022-12-06T04:32:36.077Z,3.26
2022-12-06T04:33:36.065Z,3.26
2022-12-06T04:34:36.058Z,3.23
2022-12-06T04:35:37.079Z,3.26
2022-12-06T04:36:36.084Z,3.21
2022-12-06T04:37:36.037Z,3.21
2022-12-06T04:38:36.043Z,3.25
2022-12-06T04:39:36.027Z,3.23
2022-12-06T04:40:36.013Z,3.23
2022-12-06T04:41:36.031Z,3.28
2022-12-06T04:42:36.003Z,3.21
2022-12-06T04:43:36.040Z,3.26
2022-12-06T04:44:35.987Z,3.34
2022-12-06T04:45:35.978Z,3.36
2022-12-06T04:46:36.091Z,3.29
2022-12-06T04:47:35.967Z,3.32
2022-12-06T04:48:35.954Z,3.28
2022-12-06T04:49:35.943Z,3.31
2022-12-06T04:50:35.954Z,3.23
2022-12-06T04:51:35.965Z,3.32
2022-12-06T04:52:36.442Z,3.13
2022-12-06T04:53:36.926Z,3.13
2022-12-06T04:54:35.913Z,3.23
2022-12-06T04:55:35.919Z,3.22
2022-12-06T04:56:35.930Z,3.22
2022-12-06T04:57:35.892Z,3.28
2022-12-06T04:58:35.877Z,3.28
2022-12-06T04:59:35.869Z,3.18
2022-12-06T05:00:35.903Z,3.21
2022-12-06T05:01:35.880Z,3.16
2022-12-06T05:02:35.849Z,3.21
2022-12-06T05:03:40.864Z,3.13
2022-12-06T05:04:37.836Z,3.19
2022-12-06T05:05:35.825Z,3.14
2022-12-06T05:06:35.857Z,3.14
2022-12-06T05:07:35.901Z,3.03
2022-12-06T05:08:35.802Z,3.04
2022-12-06T05:09:35.794Z,3.07
2022-12-06T05:10:35.792Z,3.16
2022-12-06T05:11:35.807Z,3.13
2022-12-06T05:12:35.765Z,3.10
2022-12-06T05:13:35.765Z,3.05
2022-12-06T05:14:35.756Z,3.05
2022-12-06T05:15:35.748Z,3.08
2022-12-06T05:16:35.800Z,3.21
2022-12-06T05:17:35.733Z,3.08
2022-12-06T05:18:35.724Z,3.16
2022-12-06T05:19:35.717Z,3.05
2022-12-06T05:20:35.708Z,3.04
2022-12-06T05:21:35.724Z,2.98
2022-12-06T05:22:36.698Z,3.07
2022-12-06T05:23:35.690Z,3.00
2022-12-06T05:24:35.702Z,3.03
2022-12-06T05:25:35.671Z,2.95
2022-12-06T05:26:35.699Z,3.04
2022-12-06T05:27:36.310Z,3.03
2022-12-06T05:28:36.656Z,3.10
2022-12-06T05:29:35.652Z,3.00
2022-12-06T05:30:35.636Z,3.00
2022-12-06T05:31:35.735Z,3.07
2022-12-06T05:32:35.622Z,3.04
2022-12-06T05:33:35.612Z,2.93
2022-12-06T05:34:35.607Z,3.00
2022-12-06T05:35:35.603Z,2.93
2022-12-06T05:36:35.615Z,2.98
2022-12-06T05:37:36.591Z,3.04
2022-12-06T05:38:35.579Z,3.04
2022-12-06T05:39:35.578Z,3.04
2022-12-06T05:40:35.571Z,3.05
2022-12-06T05:41:35.600Z,3.00
2022-12-06T05:42:35.552Z,2.98
2022-12-06T05:43:35.541Z,3.08
2022-12-06T05:44:35.525Z,2.98
2022-12-06T05:45:35.585Z,3.01
2022-12-06T05:46:35.562Z,2.98
2022-12-06T05:47:35.542Z,2.90
2022-12-06T05:48:35.523Z,3.03
2022-12-06T05:49:35.504Z,2.97
2022-12-06T05:50:35.496Z,2.89
2022-12-06T05:51:35.485Z,2.98
2022-12-06T05:52:35.500Z,2.97
2022-12-06T05:53:35.483Z,2.98
2022-12-06T05:54:35.457Z,3.00
2022-12-06T05:55:35.449Z,3.04
2022-12-06T05:56:35.443Z,2.98
2022-12-06T05:57:35.461Z,3.05
2022-12-06T05:58:35.430Z,3.05
2022-12-06T05:59:35.420Z,2.97
2022-12-06T06:00:35.404Z,2.98
2022-12-06T06:01:35.414Z,3.01
2022-12-06T06:02:35.522Z,2.90
2022-12-06T06:03:35.468Z,2.98
2022-12-06T06:04:35.385Z,3.01
2022-12-06T06:05:35.391Z,2.98
2022-12-06T06:06:35.366Z,3.01
2022-12-06T06:07:35.444Z,3.00
2022-12-06T06:08:35.354Z,3.03
2022-12-06T06:09:35.347Z,3.03
2022-12-06T06:10:35.336Z,3.03
2022-12-06T06:11:35.340Z,3.01
2022-12-06T06:12:35.347Z,3.07
2022-12-06T06:13:35.319Z,3.13
2022-12-06T06:14:35.309Z,3.13
2022-12-06T06:15:35.308Z,3.07
2022-12-06T06:16:35.375Z,2.98
2022-12-06T06:17:35.323Z,3.01
2022-12-06T06:18:35.284Z,3.05
2022-12-06T06:19:35.268Z,3.03
2022-12-06T06:20:35.275Z,3.03
2022-12-06T06:21:35.256Z,3.07
2022-12-06T06:22:35.323Z,3.04
2022-12-06T06:23:35.242Z,3.03
2022-12-06T06:24:35.242Z,3.00
2022-12-06T06:25:35.228Z,3.04
2022-12-06T06:26:35.219Z,3.05
2022-12-06T06:27:35.245Z,3.03
2022-12-06T06:28:35.200Z,3.10
2022-12-06T06:29:35.195Z,3.07
2022-12-06T06:30:35.185Z,3.01
2022-12-06T06:31:35.252Z,3.00
2022-12-06T06:32:35.199Z,3.05
2022-12-06T06:33:35.166Z,3.03
2022-12-06T06:34:35.161Z,3.10
2022-12-06T06:35:35.148Z,2.98
2022-12-06T06:36:35.271Z,3.07
2022-12-06T06:37:35.159Z,3.05
2022-12-06T06:38:35.128Z,3.01
2022-12-06T06:39:35.123Z,3.05
2022-12-06T06:40:35.113Z,3.11
2022-12-06T06:41:35.109Z,2.92
2022-12-06T06:42:35.115Z,2.90
2022-12-06T06:44:09.246Z,2.93
2022-12-06T06:44:35.085Z,3.00
2022-12-06T06:45:35.106Z,3.00
2022-12-06T06:46:35.133Z,3.03
2022-12-06T06:47:35.115Z,2.97
2022-12-06T06:48:35.057Z,3.01
2022-12-06T06:49:35.052Z,3.08
2022-12-06T06:50:35.061Z,3.07
2022-12-06T06:51:35.035Z,3.05
2022-12-06T06:52:35.065Z,3.00
2022-12-06T06:53:35.037Z,2.97
2022-12-06T06:54:35.032Z,2.93
2022-12-06T06:55:35.017Z,2.98
2022-12-06T06:56:35.027Z,3.00
2022-12-06T06:57:35.100Z,2.93
2022-12-06T06:58:34.994Z,2.97
2022-12-06T06:59:35.042Z,2.95
2022-12-06T07:00:34.995Z,2.97
2022-12-06T07:01:35.130Z,2.98
2022-12-06T07:02:35.050Z,2.92
2022-12-06T07:03:34.965Z,2.90
2022-12-06T07:04:34.951Z,3.03
2022-12-06T07:05:34.948Z,3.00
2022-12-06T07:06:34.942Z,2.90
2022-12-06T07:07:35.009Z,2.98
2022-12-06T07:08:34.945Z,3.01
2022-12-06T07:09:34.924Z,2.93
2022-12-06T07:10:34.913Z,3.05
2022-12-06T07:11:34.912Z,2.97
2022-12-06T07:12:34.885Z,3.00
2022-12-06T07:13:34.924Z,2.95
2022-12-06T07:14:34.904Z,3.00
2022-12-06T07:15:34.875Z,3.01
2022-12-06T07:16:34.912Z,2.97
2022-12-06T07:17:34.900Z,3.01
2022-12-06T07:18:34.870Z,3.04
2022-12-06T07:19:34.854Z,2.97
2022-12-06T07:20:34.835Z,2.98
2022-12-06T07:21:34.824Z,2.98
2022-12-06T07:22:34.818Z,3.00
2022-12-06T07:23:34.827Z,3.00
2022-12-06T07:24:41.252Z,2.89
2022-12-06T07:25:36.861Z,2.97
2022-12-06T07:26:34.780Z,3.04
2022-12-06T07:27:34.787Z,3.03
2022-12-06T07:28:34.804Z,2.92
2022-12-06T07:29:34.774Z,3.07
2022-12-06T07:30:34.924Z,2.95
2022-12-06T07:31:34.823Z,2.95
2022-12-06T07:32:34.731Z,3.00
2022-12-06T07:33:34.755Z,3.01
2022-12-06T07:34:34.732Z,3.03
2022-12-06T07:36:10.176Z,3.07
2022-12-06T07:36:36.707Z,3.01
2022-12-06T07:37:34.724Z,3.13
2022-12-06T07:38:34.726Z,3.01
2022-12-06T07:39:34.684Z,3.01
2022-12-06T07:41:03.001Z,3.00
2022-12-06T07:41:36.705Z,3.04
2022-12-06T07:42:34.666Z,3.04
2022-12-06T07:43:34.656Z,3.07
2022-12-06T07:44:34.698Z,3.10
2022-12-06T07:45:34.646Z,3.07
2022-12-06T07:46:34.702Z,3.11
2022-12-06T07:47:34.630Z,3.18
2022-12-06T07:48:34.636Z,3.11
2022-12-06T07:49:34.664Z,3.18
2022-12-06T07:50:34.617Z,3.14
2022-12-06T07:51:34.616Z,3.07
2022-12-06T07:52:34.592Z,3.01
2022-12-06T07:53:34.585Z,3.03
2022-12-06T07:54:34.630Z,3.10
2022-12-06T07:55:34.574Z,3.10
2022-12-06T07:56:34.573Z,3.08
2022-12-06T07:57:38.566Z,3.07
2022-12-06T07:58:36.545Z,3.14
2022-12-06T07:59:34.579Z,3.10
2022-12-06T08:00:34.535Z,3.07
2022-12-06T08:01:34.591Z,3.10
2022-12-06T08:02:34.528Z,3.04
2022-12-06T08:03:34.510Z,3.07
2022-12-06T08:04:34.571Z,3.10
2022-12-06T08:05:34.497Z,3.07
2022-12-06T08:06:34.476Z,3.05
2022-12-06T08:07:34.557Z,3.18
2022-12-06T08:08:34.575Z,3.14
2022-12-06T08:09:34.492Z,3.11
2022-12-06T08:10:34.458Z,3.13
2022-12-06T08:11:34.445Z,3.08
2022-12-06T08:12:34.445Z,3.18
2022-12-06T08:13:34.480Z,3.22
2022-12-06T08:14:34.450Z,3.16
2022-12-06T08:15:34.466Z,3.11
2022-12-06T08:16:34.465Z,3.10
2022-12-06T08:17:34.410Z,3.14
2022-12-06T08:18:34.391Z,3.19
2022-12-06T08:19:34.427Z,3.11
2022-12-06T08:20:34.382Z,3.19
2022-12-06T08:21:34.369Z,3.04
2022-12-06T08:22:34.370Z,3.14
2022-12-06T08:23:34.886Z,3.14
2022-12-06T08:24:35.373Z,3.14
2022-12-06T08:25:34.355Z,3.13
2022-12-06T08:26:34.337Z,3.16
2022-12-06T08:27:34.361Z,3.07
2022-12-06T08:28:34.314Z,3.10
2022-12-06T08:29:34.345Z,3.11
2022-12-06T08:30:34.404Z,3.19
2022-12-06T08:31:34.342Z,3.22
2022-12-06T08:32:34.299Z,3.11
2022-12-06T08:33:34.287Z,3.04
2022-12-06T08:34:34.309Z,3.16
2022-12-06T08:35:34.290Z,3.07
2022-12-06T08:36:34.265Z,3.18
2022-12-06T08:37:34.259Z,3.13
2022-12-06T08:38:34.247Z,3.18
2022-12-06T08:39:34.264Z,3.11
2022-12-06T08:40:34.263Z,3.13
2022-12-06T08:41:34.287Z,3.13
2022-12-06T08:42:34.229Z,3.13
2022-12-06T08:43:34.205Z,3.21
2022-12-06T08:44:34.229Z,3.21
2022-12-06T08:45:34.193Z,3.19
2022-12-06T08:46:34.232Z,3.23
2022-12-06T08:47:34.238Z,3.22
2022-12-06T08:48:38.436Z,3.25
2022-12-06T08:49:35.282Z,3.11
2022-12-06T08:50:34.154Z,3.25
2022-12-06T08:51:34.158Z,3.18
2022-12-06T08:52:34.143Z,3.25
2022-12-06T08:53:34.133Z,3.26
2022-12-06T08:54:34.154Z,3.28
2022-12-06T08:55:34.127Z,3.21
2022-12-06T08:56:34.103Z,3.21
2022-12-06T08:57:34.108Z,3.26
2022-12-06T08:58:34.108Z,3.40
2022-12-06T08:59:34.113Z,3.29
2022-12-06T09:00:35.269Z,3.31
2022-12-06T09:01:37.781Z,3.32
2022-12-06T09:02:35.068Z,3.34
2022-12-06T09:03:34.062Z,3.28
2022-12-06T09:04:34.122Z,3.40
2022-12-06T09:05:34.055Z,3.50
2022-12-06T09:06:34.074Z,3.36
2022-12-06T09:07:34.088Z,3.47
2022-12-06T09:08:34.074Z,3.45
2022-12-06T09:09:34.034Z,3.42
2022-12-06T09:10:34.026Z,3.41
2022-12-06T09:11:34.003Z,3.45
2022-12-06T09:12:34.004Z,3.44
2022-12-06T09:13:33.982Z,3.50
2022-12-06T09:14:34.020Z,3.45
2022-12-06T09:15:35.054Z,3.48
2022-12-06T09:16:34.039Z,3.48
2022-12-06T09:17:33.965Z,3.45
2022-12-06T09:18:33.943Z,3.51
2022-12-06T09:19:33.983Z,3.50
2022-12-06T09:20:33.935Z,3.47
2022-12-06T09:21:33.945Z,3.53
2022-12-06T09:22:33.974Z,3.41
2022-12-06T09:23:33.931Z,3.50
2022-12-06T09:24:33.964Z,3.44
2022-12-06T09:25:33.886Z,3.45
2022-12-06T09:26:33.894Z,3.51
2022-12-06T09:27:33.882Z,3.51
2022-12-06T09:28:33.858Z,3.58
2022-12-06T09:29:38.962Z,3.55
2022-12-06T09:30:35.843Z,3.56
2022-12-06T09:31:33.869Z,3.55
2022-12-06T09:32:33.828Z,3.69
2022-12-06T09:33:33.823Z,3.53
2022-12-06T09:34:33.809Z,3.60
2022-12-06T09:35:33.831Z,3.65
2022-12-06T09:36:33.800Z,3.62
2022-12-06T09:37:33.788Z,3.66
2022-12-06T09:38:33.780Z,3.60
2022-12-06T09:39:33.775Z,3.65
2022-12-06T09:40:37.243Z,3.65
2022-12-06T09:41:34.762Z,3.59
2022-12-06T09:42:33.752Z,3.69
2022-12-06T09:43:33.750Z,3.59
2022-12-06T09:44:33.750Z,3.62
2022-12-06T09:45:33.762Z,3.59
2022-12-06T09:46:33.767Z,3.55
2022-12-06T09:47:33.714Z,3.47
2022-12-06T09:48:33.713Z,3.37
2022-12-06T09:49:33.707Z,3.42
2022-12-06T09:50:33.725Z,3.50
2022-12-06T09:51:33.684Z,3.48
2022-12-06T09:52:33.683Z,3.48
2022-12-06T09:53:33.673Z,3.62
2022-12-06T09:54:33.663Z,3.53
2022-12-06T09:55:33.698Z,3.48
2022-12-06T09:56:33.646Z,3.47
2022-12-06T09:57:33.640Z,3.58
2022-12-06T09:58:33.633Z,3.62
2022-12-06T09:59:33.640Z,3.50
2022-12-06T10:00:33.647Z,3.55
2022-12-06T10:01:33.672Z,3.50
2022-12-06T10:02:33.655Z,3.48
2022-12-06T10:03:33.600Z,3.48
2022-12-06T10:04:33.598Z,3.53
2022-12-06T10:05:33.613Z,3.58
2022-12-06T10:06:33.586Z,3.65
2022-12-06T10:07:33.617Z,3.62
2022-12-06T10:08:33.652Z,3.69
2022-12-06T10:09:34.044Z,3.62
2022-12-06T10:10:33.573Z,3.68
2022-12-06T10:11:33.538Z,3.62
2022-12-06T10:12:33.532Z,3.59
2022-12-06T10:13:33.532Z,3.65
2022-12-06T10:14:33.518Z,3.50
2022-12-06T10:15:33.538Z,3.37
2022-12-06T10:16:33.600Z,3.51
2022-12-06T10:17:33.492Z,3.47
2022-12-06T10:18:33.482Z,3.51
2022-12-06T10:19:33.477Z,3.55
2022-12-06T10:20:33.504Z,3.56
2022-12-06T10:21:33.461Z,3.62
2022-12-06T10:22:33.458Z,3.63
2022-12-06T10:23:33.460Z,3.66
2022-12-06T10:24:33.426Z,3.69
2022-12-06T10:25:34.461Z,3.63
2022-12-06T10:26:33.416Z,3.74
2022-12-06T10:27:33.420Z,3.68
2022-12-06T10:28:33.412Z,3.69
2022-12-06T10:29:33.404Z,3.56
2022-12-06T10:30:33.402Z,3.65
2022-12-06T10:31:33.429Z,3.62
2022-12-06T10:32:33.382Z,3.59
2022-12-06T10:33:33.388Z,3.60
2022-12-06T10:34:33.363Z,3.58
2022-12-06T10:35:33.356Z,3.68
2022-12-06T10:36:33.436Z,3.65
2022-12-06T10:37:33.353Z,3.55
2022-12-06T10:38:33.335Z,3.63
2022-12-06T10:39:33.324Z,3.68
2022-12-06T10:40:33.317Z,3.74
2022-12-06T10:41:33.328Z,3.81
2022-12-06T10:42:33.297Z,3.80
2022-12-06T10:43:33.287Z,3.77
2022-12-06T10:44:33.297Z,3.77
2022-12-06T10:45:33.281Z,3.76
2022-12-06T10:46:33.331Z,3.76
2022-12-06T10:47:33.262Z,3.76
2022-12-06T10:48:33.262Z,3.77
2022-12-06T10:49:33.240Z,3.78
2022-12-06T10:50:33.241Z,3.76
2022-12-06T10:51:33.258Z,3.83
2022-12-06T10:52:33.221Z,3.80
2022-12-06T10:53:33.218Z,3.78
2022-12-06T10:54:33.226Z,3.81
2022-12-06T10:55:33.222Z,3.87
2022-12-06T10:56:33.231Z,3.91
2022-12-06T10:57:33.185Z,3.91
2022-12-06T10:58:33.185Z,3.94
2022-12-06T10:59:33.170Z,3.73
2022-12-06T11:00:33.196Z,3.73
2022-12-06T11:01:34.327Z,3.65
2022-12-06T11:02:34.198Z,3.77
2022-12-06T11:03:33.151Z,3.63
2022-12-06T11:04:33.141Z,3.86
2022-12-06T11:05:33.132Z,3.76
2022-12-06T11:06:33.148Z,3.73
2022-12-06T11:07:33.185Z,3.81
2022-12-06T11:08:33.107Z,3.70
2022-12-06T11:09:33.107Z,3.80
2022-12-06T11:10:33.091Z,3.68
2022-12-06T11:11:33.117Z,3.77
2022-12-06T11:12:33.078Z,3.83
2022-12-06T11:13:33.087Z,3.76
2022-12-06T11:14:33.059Z,3.68
2022-12-06T11:15:33.060Z,3.68
2022-12-06T11:16:33.193Z,3.73
2022-12-06T11:17:33.037Z,3.76
2022-12-06T11:18:33.038Z,3.80
2022-12-06T11:19:33.027Z,3.77
2022-12-06T11:20:33.025Z,3.77
2022-12-06T11:21:33.037Z,3.70
2022-12-06T11:22:33.008Z,3.86
2022-12-06T11:23:32.989Z,3.65
2022-12-06T11:24:33.984Z,3.74
2022-12-06T11:25:32.990Z,3.83
2022-12-06T11:26:32.979Z,3.74
2022-12-06T11:27:32.989Z,3.68
2022-12-06T11:28:32.953Z,3.92
2022-12-06T11:29:32.962Z,3.84
2022-12-06T11:30:33.052Z,3.86
2022-12-06T11:31:33.020Z,3.94
2022-12-06T11:32:32.960Z,4.01
2022-12-06T11:33:32.925Z,3.96
2022-12-06T11:34:32.924Z,4.13
2022-12-06T11:35:32.914Z,3.86
2022-12-06T11:36:32.897Z,3.92
2022-12-06T11:37:32.924Z,3.99
2022-12-06T11:38:32.886Z,3.91
2022-12-06T11:39:32.884Z,3.94
2022-12-06T11:40:32.870Z,3.94
2022-12-06T11:41:32.876Z,3.91
2022-12-06T11:42:33.255Z,4.05
2022-12-06T11:43:32.855Z,3.95
2022-12-06T11:44:32.886Z,3.98
2022-12-06T11:45:32.871Z,3.92
2022-12-06T11:46:32.913Z,3.94
2022-12-06T11:47:32.845Z,3.95
2022-12-06T11:48:32.808Z,3.92
2022-12-06T11:49:32.815Z,3.83
2022-12-06T11:50:32.798Z,3.81
2022-12-06T11:51:32.901Z,3.81
2022-12-06T11:52:32.815Z,3.87
2022-12-06T11:53:32.781Z,3.84
2022-12-06T11:54:32.765Z,3.92
2022-12-06T11:55:32.764Z,3.91
2022-12-06T11:56:32.762Z,3.81
2022-12-06T11:57:32.781Z,3.81
2022-12-06T11:58:32.740Z,3.92
2022-12-06T11:59:32.759Z,3.96
2022-12-06T12:00:32.721Z,3.86
2022-12-06T12:01:33.812Z,3.94
2022-12-06T12:02:32.751Z,3.87
2022-12-06T12:03:32.797Z,3.92
2022-12-06T12:04:32.693Z,4.01
2022-12-06T12:05:32.684Z,3.94
2022-12-06T12:06:32.677Z,4.04
2022-12-06T12:07:32.730Z,4.12
2022-12-06T12:08:33.071Z,3.96
2022-12-06T12:09:33.688Z,4.05
2022-12-06T12:10:32.683Z,3.96
2022-12-06T12:11:32.650Z,4.05
2022-12-06T12:12:32.664Z,3.98
2022-12-06T12:13:32.643Z,4.08
2022-12-06T12:14:32.628Z,4.01
2022-12-06T12:15:32.616Z,3.98
2022-12-06T12:16:32.744Z,4.06
2022-12-06T12:17:32.629Z,4.08
2022-12-06T12:18:32.597Z,4.04
2022-12-06T12:19:32.594Z,4.06
2022-12-06T12:20:32.610Z,4.12
2022-12-06T12:21:32.578Z,4.08
2022-12-06T12:22:32.599Z,4.05
2022-12-06T12:23:32.563Z,4.10
2022-12-06T12:24:38.302Z,4.02
2022-12-06T12:25:33.543Z,4.06
2022-12-06T12:26:32.531Z,4.12
2022-12-06T12:27:32.527Z,4.06
2022-12-06T12:28:32.546Z,4.14
2022-12-06T12:29:32.519Z,4.12
2022-12-06T12:30:32.623Z,3.99
2022-12-06T12:31:32.544Z,4.02
2022-12-06T12:32:32.487Z,3.92
2022-12-06T12:33:32.512Z,3.92
2022-12-06T12:34:32.472Z,3.95
2022-12-06T12:35:32.509Z,3.98
2022-12-06T12:36:32.461Z,4.01
2022-12-06T12:37:32.450Z,3.99
2022-12-06T12:38:32.575Z,4.04
2022-12-06T12:39:32.454Z,4.08
2022-12-06T12:40:32.426Z,4.02
2022-12-06T12:41:32.434Z,3.94
2022-12-06T12:42:32.417Z,4.12
2022-12-06T12:44:38.504Z,4.12
2022-12-06T12:45:34.485Z,3.98
2022-12-06T12:46:32.420Z,4.01
2022-12-06T12:47:32.375Z,4.06
2022-12-06T12:48:32.401Z,4.01
2022-12-06T12:49:32.365Z,4.10
2022-12-06T12:50:32.363Z,4.06
2022-12-06T12:51:32.347Z,4.06
2022-12-06T12:52:32.338Z,4.08
2022-12-06T12:53:32.362Z,4.05
2022-12-06T12:54:32.324Z,3.98
2022-12-06T12:55:32.311Z,4.01
2022-12-06T12:56:32.308Z,4.05
2022-12-06T12:57:32.305Z,4.02
2022-12-06T12:58:35.971Z,4.01
2022-12-06T12:59:33.289Z,4.04
2022-12-06T13:00:32.283Z,4.01
2022-12-06T13:01:32.341Z,4.01
2022-12-06T13:02:32.385Z,3.95
2022-12-06T13:03:50.772Z,4.08
2022-12-06T13:04:34.247Z,3.99
2022-12-06T13:05:34.313Z,4.10
2022-12-06T13:06:33.238Z,4.08
2022-12-06T13:07:32.279Z,4.10
2022-12-06T13:08:32.219Z,3.99
2022-12-06T13:09:32.237Z,4.05
2022-12-06T13:10:32.206Z,4.13
2022-12-06T13:11:32.205Z,4.05
2022-12-06T13:12:32.194Z,4.13
2022-12-06T13:13:32.184Z,4.16
2022-12-06T13:14:32.463Z,4.13
2022-12-06T13:15:32.170Z,4.17
2022-12-06T13:16:32.241Z,4.20
2022-12-06T13:17:32.153Z,4.10
2022-12-06T13:18:32.209Z,4.12
2022-12-06T13:19:32.171Z,4.16